Stahlstown, Pennsylvania
Current Conditions -  °F | °C
As of 6:15 PM on Wednesday 17 Dec 2014 (Local Time) from K2G9 Reporting Station
Light Snow Light Snow  
Wind Chill: 16°   Ceiling: 1000
Heat Index: 28°   Visibility: 3mi
Dew Point: 25°   Wind: 17mph
Humidity: 86%   Direction: 270°W
Pressure: 30"   Gusts: 25mph
Location:  40.15°N, 79.33°W
Report Text: K2G9 172315Z AUTO 27015G22KT 3SM -SN OVC010 M02/M04 A3000 RMK AO2
Loading
Personal Weather Stations






























Interactive Weather Map New forecast layout! Learn more

10-Day Weather Forecast

Advertisements
Track Severe Weather on mobile